Keewaydin — ZCFL7 — position and weather

sailwx.info

Track history (hours):
 
Tides and Currents Weather Stations Pressure Air Temp Water Temp Dewpoint Dewpoint Depression Visibility Wind Speed Wind Dir Waves Ship Positions

Keewaydin

Last reported at 2017-Jul-22 16:37 UTC. Time now 2017-Aug-19 07:38 UTC.
Position N 41°23' E 002°14'.
Warning: this ship's position is 27 days out of date.

Length 34 m; draft 2.7 m.

MMSI: 319536000.

Date/timePositionNaut miles runAvg speedWind from/ knotsBaromVisibWave heightAir tempDewpointWater temp
2017-Jul-22 16:37N 41°23' E 002°14'1 9.7
2017-Jul-22 16:30N 41°22' E 002°14'16 8.5
2017-Jul-22 14:33N 41°14' E 001°55'9 0.2
2017-Jul-20 19:18N 41°13' E 001°44'0 0.0
2017-Jul-20 18:51N 41°13' E 001°44'0 0.0
2017-Jul-20 18:30N 41°13' E 001°44'0 0.0
2017-Jul-20 18:00N 41°13' E 001°44'0 0.0
2017-Jul-20 17:24N 41°13' E 001°44'0 0.0
2017-Jul-20 17:00N 41°13' E 001°44'0 0.0
2017-Jul-20 16:30N 41°13' E 001°44'0 0.0
2017-Jul-20 16:00N 41°13' E 001°44'2 4.4
2017-Jul-20 15:28N 41°12' E 001°47'4 8.0
2017-Jul-20 14:58N 41°13' E 001°52'10 6.3
2017-Jul-20 13:20N 41°15' E 002°05'6 6.1
2017-Jul-20 12:23N 41°18' E 002°12'5 6.8
2017-Jul-20 11:40N 41°23' E 002°14'  
2017-Jul-13 05:49N 41°32' E 002°27'0 0.0
2017-Jul-13 05:31N 41°32' E 002°27'0 0.0
2017-Jul-13 05:00N 41°32' E 002°27'0 0.0
2017-Jul-13 04:25N 41°32' E 002°27'0 0.0
2017-Jul-13 03:58N 41°32' E 002°27'0 0.0
2017-Jul-13 03:25N 41°32' E 002°27'0 0.0
2017-Jul-13 02:47N 41°32' E 002°27'0 0.0
2017-Jul-13 02:23N 41°32' E 002°27'0 0.0
2017-Jul-13 01:06N 41°32' E 002°27'0 0.0
2017-Jul-13 00:41N 41°32' E 002°27'0 0.0
2017-Jul-13 00:29N 41°32' E 002°27'0 0.0
2017-Jul-12 23:55N 41°32' E 002°27'0 0.0
2017-Jul-12 23:30N 41°32' E 002°27'0 0.0
2017-Jul-12 23:00N 41°32' E 002°27'0 0.0
2017-Jul-12 22:29N 41°32' E 002°27'0 0.0
2017-Jul-12 22:00N 41°32' E 002°27'0 0.0
2017-Jul-12 21:29N 41°32' E 002°27'0 0.0
2017-Jul-12 21:00N 41°32' E 002°27'0 0.0
2017-Jul-12 20:30N 41°32' E 002°27'0 0.0
2017-Jul-12 20:00N 41°32' E 002°27'0 0.0
2017-Jul-12 19:10N 41°32' E 002°27'0 0.0
2017-Jul-12 18:43N 41°32' E 002°27'0 0.0
2017-Jul-12 18:31N 41°32' E 002°27'0 0.0
2017-Jul-12 18:00N 41°32' E 002°27'2 3.4
2017-Jul-12 17:30N 41°30' E 002°27'5 8.7
2017-Jul-12 16:57N 41°26' E 002°30'  
Track history (hours):
 
Tides and Currents Weather Stations Pressure Air Temp Water Temp Dewpoint Dewpoint Depression Visibility Wind Speed Wind Dir Waves Ship Positions

Keewaydin

Last reported at 2017-Jul-22 16:37 UTC. Time now 2017-Aug-19 07:38 UTC.
Position N 41°23' E 002°14'.
Warning: this ship's position is 27 days out of date.

Length 34 m; draft 2.7 m.

MMSI: 319536000.

Date/timePositionNaut miles runAvg speedWind from/ knotsBaromVisibWave heightAir tempDewpointWater temp
2017-Jul-22 16:37N 41°23' E 002°14'1 9.7
2017-Jul-22 16:30N 41°22' E 002°14'16 8.5
2017-Jul-22 14:33N 41°14' E 001°55'9 0.2
2017-Jul-20 19:18N 41°13' E 001°44'0 0.0
2017-Jul-20 18:51N 41°13' E 001°44'0 0.0
2017-Jul-20 18:30N 41°13' E 001°44'0 0.0
2017-Jul-20 18:00N 41°13' E 001°44'0 0.0
2017-Jul-20 17:24N 41°13' E 001°44'0 0.0
2017-Jul-20 17:00N 41°13' E 001°44'0 0.0
2017-Jul-20 16:30N 41°13' E 001°44'0 0.0
2017-Jul-20 16:00N 41°13' E 001°44'2 4.4
2017-Jul-20 15:28N 41°12' E 001°47'4 8.0
2017-Jul-20 14:58N 41°13' E 001°52'10 6.3
2017-Jul-20 13:20N 41°15' E 002°05'6 6.1
2017-Jul-20 12:23N 41°18' E 002°12'5 6.8
2017-Jul-20 11:40N 41°23' E 002°14'  
2017-Jul-13 05:49N 41°32' E 002°27'0 0.0
2017-Jul-13 05:31N 41°32' E 002°27'0 0.0
2017-Jul-13 05:00N 41°32' E 002°27'0 0.0
2017-Jul-13 04:25N 41°32' E 002°27'0 0.0
2017-Jul-13 03:58N 41°32' E 002°27'0 0.0
2017-Jul-13 03:25N 41°32' E 002°27'0 0.0
2017-Jul-13 02:47N 41°32' E 002°27'0 0.0
2017-Jul-13 02:23N 41°32' E 002°27'0 0.0
2017-Jul-13 01:06N 41°32' E 002°27'0 0.0
2017-Jul-13 00:41N 41°32' E 002°27'0 0.0
2017-Jul-13 00:29N 41°32' E 002°27'0 0.0
2017-Jul-12 23:55N 41°32' E 002°27'0 0.0
2017-Jul-12 23:30N 41°32' E 002°27'0 0.0
2017-Jul-12 23:00N 41°32' E 002°27'0 0.0
2017-Jul-12 22:29N 41°32' E 002°27'0 0.0
2017-Jul-12 22:00N 41°32' E 002°27'0 0.0
2017-Jul-12 21:29N 41°32' E 002°27'0 0.0
2017-Jul-12 21:00N 41°32' E 002°27'0 0.0
2017-Jul-12 20:30N 41°32' E 002°27'0 0.0
2017-Jul-12 20:00N 41°32' E 002°27'0 0.0
2017-Jul-12 19:10N 41°32' E 002°27'0 0.0
2017-Jul-12 18:43N 41°32' E 002°27'0 0.0
2017-Jul-12 18:31N 41°32' E 002°27'0 0.0
2017-Jul-12 18:00N 41°32' E 002°27'2 3.4
2017-Jul-12 17:30N 41°30' E 002°27'5 8.7
2017-Jul-12 16:57N 41°26' E 002°30'  

Dump ship's entire track history